Time;durP1;ratioP1;P1;durP2;ratioP2;P2;SDS_P1;SDS_P2;PMS_P1;PMS_P2;Temp;Humidity;BMP_temperature;BMP_pressure;BME280_temperature;BME280_humidity;BME280_pressure;Samples;Min_cycle;Max_cycle;Signal;HPM_P1;HPM_P2
2022/08/12 00:43:55;;;;;;;6.23;5.77;;;18.50;99.90;;;;;;5079957;28;20433;-57
2022/08/12 00:46:31;;;;;;;7.00;6.40;;;18.40;99.90;;;;;;5079806;28;20558;-54
2022/08/12 00:49:00;;;;;;;7.93;6.67;;;18.40;99.90;;;;;;5080278;28;20505;-56
2022/08/12 00:52:04;;;;;;;7.43;6.70;;;18.40;99.90;;;;;;5080560;28;22395;-51
2022/08/12 00:54:21;;;;;;;6.50;6.00;;;18.50;99.90;;;;;;5080243;28;20453;-55
2022/08/12 00:56:49;;;;;;;7.27;6.60;;;18.50;99.90;;;;;;5080512;28;20436;-50
2022/08/12 00:59:18;;;;;;;7.47;6.77;;;18.30;99.90;;;;;;5080062;28;20933;-54
2022/08/12 01:01:48;;;;;;;7.30;6.60;;;18.20;99.90;;;;;;5079716;28;20457;-51
2022/08/12 01:12:38;;;;;;;7.97;6.20;;;18.20;99.90;;;;;;5079670;28;20511;-48
2022/08/12 01:15:07;;;;;;;7.67;6.97;;;18.10;99.90;;;;;;5079396;28;20567;-57
2022/08/12 01:17:35;;;;;;;6.60;6.00;;;18.10;99.90;;;;;;5079456;28;20457;-55
2022/08/12 01:20:06;;;;;;;7.77;7.17;;;18.10;99.90;;;;;;5079862;28;20432;-51
2022/08/12 01:22:45;;;;;;;7.43;6.87;;;18.00;99.90;;;;;;5079726;28;20557;-54
2022/08/12 01:25:17;;;;;;;6.50;5.90;;;17.90;99.90;;;;;;5080159;28;20933;-55
2022/08/12 01:27:46;;;;;;;7.33;6.20;;;17.90;99.90;;;;;;5079348;28;20468;-53
2022/08/12 01:30:15;;;;;;;7.10;6.60;;;17.90;99.90;;;;;;5079607;28;20848;-53
2022/08/12 01:32:47;;;;;;;6.00;5.40;;;17.90;99.90;;;;;;5078678;28;20514;-57
2022/08/12 01:35:16;;;;;;;6.80;6.20;;;17.90;99.90;;;;;;5079919;28;20465;-52
2022/08/12 01:37:51;;;;;;;7.00;6.30;;;17.90;99.90;;;;;;5079193;28;20462;-49
2022/08/12 01:40:27;;;;;;;6.33;5.83;;;17.90;99.90;;;;;;5079564;28;20840;-53
2022/08/12 01:43:03;;;;;;;7.30;6.60;;;17.90;99.90;;;;;;5079876;28;20547;-52
2022/08/12 01:45:33;;;;;;;6.80;6.20;;;17.80;99.90;;;;;;5078489;28;20532;-57
2022/08/12 01:48:11;;;;;;;6.73;6.23;;;17.80;99.90;;;;;;5079123;28;20556;-57
2022/08/12 01:50:50;;;;;;;6.93;6.00;;;17.80;99.90;;;;;;5079356;28;20973;-57
2022/08/12 01:53:19;;;;;;;6.93;6.33;;;17.80;99.90;;;;;;5079493;28;20492;-53
2022/08/12 01:55:51;;;;;;;6.90;6.40;;;17.70;99.90;;;;;;5077754;28;20455;-52
2022/08/12 01:58:28;;;;;;;9.27;6.10;;;17.70;99.90;;;;;;5079308;28;20552;-54
2022/08/12 02:00:58;;;;;;;7.57;6.87;;;17.70;99.90;;;;;;5078962;28;20460;-56
2022/08/12 02:12:42;;;;;;;7.17;6.47;;;17.40;99.90;;;;;;5078550;28;20418;-54
2022/08/12 02:15:22;;;;;;;6.80;5.77;;;17.50;99.90;;;;;;5078491;28;20538;-54
2022/08/12 02:18:03;;;;;;;7.40;6.80;;;17.50;99.90;;;;;;5078499;28;20913;-57
2022/08/12 02:20:38;;;;;;;6.33;5.83;;;17.50;99.90;;;;;;5078667;28;20465;-54
2022/08/12 02:23:11;;;;;;;7.07;6.40;;;17.50;99.90;;;;;;5078865;28;20530;-55
2022/08/12 02:25:44;;;;;;;7.87;6.90;;;17.40;99.90;;;;;;5078413;28;20587;-56
2022/08/12 02:28:15;;;;;;;8.00;7.23;;;17.30;99.90;;;;;;5078510;28;20469;-51
2022/08/12 02:30:43;;;;;;;6.87;6.37;;;17.30;99.90;;;;;;5078510;28;20977;-51
2022/08/12 02:33:13;;;;;;;6.97;6.37;;;17.30;99.90;;;;;;5078586;28;20590;-58
2022/08/12 02:35:41;;;;;;;6.83;6.23;;;17.30;99.90;;;;;;5078540;28;20457;-55
2022/08/12 02:38:11;;;;;;;7.20;6.60;;;17.10;99.90;;;;;;5078129;28;20461;-57
2022/08/12 02:40:47;;;;;;;6.83;6.23;;;17.10;99.90;;;;;;5078456;28;20548;-53
2022/08/12 02:43:25;;;;;;;7.53;6.93;;;17.10;99.90;;;;;;5078332;28;20461;-56
2022/08/12 02:45:59;;;;;;;7.47;6.87;;;17.10;99.90;;;;;;5077831;28;20859;-56
2022/08/12 02:48:34;;;;;;;9.63;6.97;;;17.10;99.90;;;;;;5078184;28;20465;-55
2022/08/12 02:51:08;;;;;;;7.40;6.80;;;17.10;99.90;;;;;;5077889;28;20834;-56
2022/08/12 02:53:37;;;;;;;6.90;6.40;;;17.10;99.90;;;;;;5078083;28;20862;-53
2022/08/12 02:56:06;;;;;;;7.50;6.87;;;17.10;99.90;;;;;;5076648;28;20489;-48
2022/08/12 02:58:35;;;;;;;6.80;6.20;;;17.00;99.90;;;;;;5078478;28;20461;-52
2022/08/12 03:01:08;;;;;;;7.47;6.80;;;17.00;99.90;;;;;;5078276;28;20547;-53
2022/08/12 03:03:43;;;;;;;7.70;6.57;;;17.00;99.90;;;;;;5077912;28;20461;-57
2022/08/12 03:06:15;;;;;;;6.70;6.20;;;16.90;99.90;;;;;;5077520;28;20591;-57
2022/08/12 03:08:44;;;;;;;6.57;6.07;;;16.90;99.90;;;;;;5078036;28;20461;-56
2022/08/12 03:11:16;;;;;;;6.90;6.40;;;17.00;99.90;;;;;;5078084;28;20487;-51
2022/08/12 03:13:57;;;;;;;7.00;6.30;;;17.00;99.90;;;;;;5077579;28;20466;-56
2022/08/12 03:16:29;;;;;;;7.70;6.87;;;16.90;99.90;;;;;;5076671;28;20579;-53
2022/08/12 03:18:57;;;;;;;6.70;6.10;;;16.90;99.90;;;;;;5077640;28;20594;-56
2022/08/12 03:21:25;;;;;;;7.50;6.80;;;16.90;99.90;;;;;;5078022;28;20440;-51
2022/08/12 03:23:57;;;;;;;6.97;6.37;;;16.90;99.90;;;;;;5077467;28;20465;-54
2022/08/12 03:26:28;;;;;;;7.67;7.07;;;16.90;99.90;;;;;;5077332;28;21471;-53
2022/08/12 03:29:00;;;;;;;7.97;7.17;;;16.90;99.90;;;;;;5077475;28;20472;-49
2022/08/12 03:31:32;;;;;;;8.27;6.90;;;16.90;99.90;;;;;;5077498;28;20756;-52
2022/08/12 03:34:05;;;;;;;7.87;7.23;;;16.90;99.90;;;;;;5077590;28;20476;-53
2022/08/12 03:36:35;;;;;;;8.30;7.50;;;16.80;99.90;;;;;;5077366;28;20546;-54
2022/08/12 03:39:26;;;;;;;8.67;7.80;;;16.70;99.90;;;;;;5077081;28;20522;-51
2022/08/12 03:42:04;;;;;;;8.37;7.67;;;16.60;99.90;;;;;;5077534;28;20500;-52
2022/08/12 04:01:21;;;;;;;6.90;6.20;;;16.40;99.90;;;;;;5076635;28;20959;-56
2022/08/12 04:03:52;;;;;;;7.33;6.73;;;16.40;99.90;;;;;;5077455;28;20469;-55
2022/08/12 04:06:20;;;;;;;7.00;6.40;;;16.40;99.90;;;;;;5076398;28;20562;-52
2022/08/12 04:08:51;;;;;;;7.43;6.43;;;16.40;99.90;;;;;;5077799;28;20460;-54
2022/08/12 04:14:13;;;;;;;7.53;6.73;;;16.40;99.90;;;;;;5097301;28;20456;-57
2022/08/12 04:16:41;;;;;;;8.30;7.40;;;16.40;99.90;;;;;;5100302;28;20484;-54
2022/08/12 04:19:09;;;;;;;7.40;6.80;;;16.30;99.90;;;;;;5101167;28;20463;-56
2022/08/12 04:21:36;;;;;;;7.77;6.00;;;16.20;99.90;;;;;;5101145;28;20456;-53
2022/08/12 04:24:05;;;;;;;7.50;6.83;;;16.20;99.90;;;;;;5100454;28;20464;-54
2022/08/12 04:26:35;;;;;;;8.43;7.73;;;16.10;99.90;;;;;;5101081;28;20491;-57
2022/08/12 04:29:04;;;;;;;7.67;7.07;;;16.10;99.90;;;;;;5100861;28;20501;-53
2022/08/12 04:31:32;;;;;;;7.30;6.70;;;16.20;99.90;;;;;;5100852;28;20565;-55
2022/08/12 04:34:02;;;;;;;7.10;6.60;;;16.10;99.90;;;;;;5100811;28;20555;-57
2022/08/12 04:36:35;;;;;;;6.90;6.30;;;16.20;99.90;;;;;;5101482;28;20805;-52
2022/08/12 04:39:04;;;;;;;7.20;6.60;;;16.20;99.90;;;;;;5100719;28;20460;-56
2022/08/12 04:41:37;;;;;;;7.50;6.80;;;16.20;99.90;;;;;;5100800;28;20559;-53
2022/08/12 04:44:05;;;;;;;7.40;6.80;;;16.20;99.90;;;;;;5101194;28;20473;-55
2022/08/12 04:46:33;;;;;;;7.50;6.90;;;16.20;99.90;;;;;;5100001;28;20494;-54
2022/08/12 04:49:08;;;;;;;6.73;6.23;;;16.30;99.90;;;;;;5100767;28;20554;-48
2022/08/12 04:51:36;;;;;;;7.30;6.70;;;16.30;99.90;;;;;;5100218;28;20562;-51
2022/08/12 04:54:04;;;;;;;6.80;6.20;;;16.30;99.90;;;;;;5087862;28;20567;-55
2022/08/12 04:56:32;;;;;;;12.53;7.40;;;16.30;99.90;;;;;;5099564;28;20946;-52
2022/08/12 04:59:00;;;;;;;6.93;6.43;;;16.20;99.90;;;;;;5099274;28;20434;-57
2022/08/12 05:01:29;;;;;;;7.20;6.50;;;16.30;99.90;;;;;;5098745;28;20841;-50
2022/08/12 05:03:57;;;;;;;7.73;6.97;;;16.30;99.90;;;;;;5098904;28;20747;-54
2022/08/12 05:06:26;;;;;;;7.43;6.73;;;16.30;99.90;;;;;;5096504;28;20950;-49
2022/08/12 05:09:00;;;;;;;7.67;6.90;;;16.40;99.90;;;;;;5098797;28;20486;-58
2022/08/12 05:11:30;;;;;;;9.10;7.20;;;16.40;99.90;;;;;;5096261;28;20455;-53
2022/08/12 05:14:01;;;;;;;7.20;6.60;;;16.50;99.90;;;;;;5098880;28;20427;-54
2022/08/12 05:16:30;;;;;;;8.63;6.27;;;16.50;99.90;;;;;;5096510;28;20537;-55
2022/08/12 05:19:06;;;;;;;9.37;7.60;;;16.60;99.90;;;;;;5098397;28;20483;-50
2022/08/12 05:21:35;;;;;;;7.70;7.10;;;16.60;99.90;;;;;;5096999;28;20460;-53
2022/08/12 05:24:03;;;;;;;7.90;7.20;;;16.70;99.90;;;;;;5098637;28;20456;-56
2022/08/12 05:26:35;;;;;;;7.97;7.17;;;16.70;99.90;;;;;;5099241;28;20480;-52
2022/08/12 05:29:04;;;;;;;8.00;7.20;;;16.80;99.90;;;;;;5100001;28;20571;-55
2022/08/12 05:31:34;;;;;;;7.20;6.60;;;16.80;99.90;;;;;;5095815;28;20530;-54
2022/08/12 05:34:02;;;;;;;6.90;6.30;;;16.90;99.90;;;;;;5096779;28;20551;-57
2022/08/12 05:36:31;;;;;;;7.00;6.40;;;17.10;99.90;;;;;;5095721;28;20471;-56
2022/08/12 05:39:01;;;;;;;6.97;6.23;;;17.20;99.90;;;;;;5094229;28;20456;-57
2022/08/12 05:41:31;;;;;;;7.87;6.70;;;17.40;99.90;;;;;;5096999;28;20460;-55
2022/08/12 05:44:00;;;;;;;7.80;6.80;;;17.50;99.90;;;;;;5093764;28;20554;-52
2022/08/12 05:46:30;;;;;;;7.43;6.70;;;17.70;99.90;;;;;;5096094;28;20508;-53
2022/08/12 05:49:01;;;;;;;10.17;6.67;;;17.80;99.90;;;;;;5098536;28;20992;-52
2022/08/12 05:51:33;;;;;;;9.47;7.33;;;17.90;99.90;;;;;;5092397;28;20480;-58
2022/08/12 05:54:04;;;;;;;6.57;5.97;;;18.00;99.90;;;;;;5080797;28;20468;-58
2022/08/12 05:56:36;;;;;;;9.00;6.73;;;18.10;99.90;;;;;;5077686;28;20555;-56
2022/08/12 05:59:06;;;;;;;6.93;6.33;;;18.20;99.90;;;;;;5097042;28;20774;-53
2022/08/12 06:01:33;;;;;;;16.20;7.30;;;18.30;99.90;;;;;;5097328;28;20467;-51
2022/08/12 06:04:01;;;;;;;7.87;6.93;;;18.40;99.90;;;;;;5098111;28;20466;-53
2022/08/12 06:06:37;;;;;;;8.73;7.10;;;18.60;99.90;;;;;;5095495;28;20931;-54
2022/08/12 06:09:10;;;;;;;8.70;6.60;;;18.80;99.90;;;;;;5097036;28;20734;-52
2022/08/12 06:11:45;;;;;;;7.50;6.90;;;19.10;99.90;;;;;;5096945;28;20456;-55
2022/08/12 06:14:13;;;;;;;9.97;6.77;;;19.40;99.90;;;;;;5095501;28;20506;-57
2022/08/12 06:16:40;;;;;;;8.20;6.77;;;19.70;99.90;;;;;;5097327;28;20531;-54
2022/08/12 06:19:09;;;;;;;11.77;7.20;;;20.10;99.90;;;;;;5094685;28;20855;-55
2022/08/12 06:21:36;;;;;;;9.50;7.27;;;20.50;99.90;;;;;;5097471;28;20457;-55
2022/08/12 06:24:09;;;;;;;6.63;6.03;;;20.80;99.90;;;;;;5095884;28;20900;-55
2022/08/12 06:26:37;;;;;;;8.13;6.70;;;21.20;99.90;;;;;;5097198;28;20488;-55
2022/08/12 06:29:06;;;;;;;6.77;6.17;;;21.50;99.90;;;;;;5098823;28;20530;-55
2022/08/12 06:31:37;;;;;;;6.53;5.93;;;22.00;99.90;;;;;;5097213;28;20470;-56
2022/08/12 06:34:04;;;;;;;14.00;6.77;;;22.30;99.90;;;;;;5099170;28;20494;-53
2022/08/12 06:36:37;;;;;;;8.40;7.03;;;22.60;99.90;;;;;;5098903;28;20461;-56
2022/08/12 06:39:08;;;;;;;13.03;6.70;;;22.90;99.90;;;;;;5098351;28;20492;-54
2022/08/12 06:44:28;;;;;;;12.13;6.73;;;23.30;99.90;;;;;;5098523;28;20730;-51
2022/08/12 06:46:57;;;;;;;6.90;6.10;;;23.50;99.90;;;;;;5097867;28;20590;-52
2022/08/12 06:49:24;;;;;;;8.67;5.70;;;23.70;99.90;;;;;;5098381;28;20460;-56
2022/08/12 06:52:03;;;;;;;7.23;6.63;;;24.00;99.90;;;;;;5098585;28;20471;-59
2022/08/12 06:54:34;;;;;;;6.33;5.73;;;24.20;99.90;;;;;;5098912;28;20904;-51
2022/08/12 06:57:02;;;;;;;7.70;6.30;;;24.50;99.90;;;;;;5098125;28;20510;-53
2022/08/12 06:59:29;;;;;;;13.10;6.10;;;24.70;99.90;;;;;;5098275;28;20460;-55
2022/08/12 07:01:59;;;;;;;7.10;5.30;;;24.90;99.90;;;;;;5098441;28;20506;-55
2022/08/12 07:04:37;;;;;;;7.43;5.60;;;25.20;99.90;;;;;;5097544;28;20559;-57
2022/08/12 07:07:05;;;;;;;6.33;5.43;;;25.50;99.90;;;;;;5098139;28;20903;-56
2022/08/12 07:09:42;;;;;;;5.67;4.87;;;25.80;99.90;;;;;;5097881;28;20883;-53
2022/08/12 07:12:18;;;;;;;6.43;5.83;;;26.20;99.90;;;;;;5098110;28;20726;-54
2022/08/12 07:14:51;;;;;;;5.53;5.00;;;26.40;99.90;;;;;;5097831;28;20460;-51
2022/08/12 07:17:23;;;;;;;8.80;5.40;;;26.80;99.90;;;;;;5104275;28;20552;-56
2022/08/12 07:19:59;;;;;;;5.07;4.67;;;27.00;99.90;;;;;;5093853;28;20903;-57
2022/08/12 07:22:28;;;;;;;5.80;4.77;;;27.40;99.90;;;;;;5112070;28;20460;-53
2022/08/12 07:27:41;;;;;;;5.13;4.63;;;27.80;99.90;;;;;;5102951;28;20494;-56
2022/08/12 07:30:11;;;;;;;6.43;5.17;;;28.10;99.90;;;;;;5117337;28;20459;-55
2022/08/12 07:32:46;;;;;;;5.13;4.03;;;28.40;99.90;;;;;;5117116;28;20529;-59
2022/08/12 07:35:18;;;;;;;4.57;4.10;;;28.70;99.90;;;;;;5108547;27;20755;-60
2022/08/12 07:37:49;;;;;;;3.73;3.30;;;28.80;99.90;;;;;;5083793;28;20514;-56
2022/08/12 07:40:18;;;;;;;3.73;3.43;;;29.10;99.90;;;;;;5097752;28;20528;-53
2022/08/12 07:42:45;;;;;;;3.93;3.53;;;29.30;99.90;;;;;;5096215;28;20465;-52
2022/08/12 07:45:13;;;;;;;4.10;3.70;;;29.50;99.90;;;;;;5095161;28;20456;-54
2022/08/12 07:47:44;;;;;;;3.23;3.03;;;29.70;99.90;;;;;;5097431;28;20494;-56
2022/08/12 07:50:13;;;;;;;4.70;3.70;;;30.00;99.90;;;;;;5096844;28;20452;-60
2022/08/12 07:52:45;;;;;;;4.00;3.70;;;30.00;99.90;;;;;;5095248;28;20460;-53
2022/08/12 07:55:21;;;;;;;3.47;3.07;;;30.20;99.90;;;;;;5095099;28;20556;-56
2022/08/12 07:57:58;;;;;;;3.90;3.60;;;30.30;99.90;;;;;;5096717;28;20852;-58
2022/08/12 08:00:26;;;;;;;4.43;3.33;;;30.50;99.90;;;;;;5097871;28;20464;-59
2022/08/12 08:02:55;;;;;;;6.90;3.73;;;30.70;99.90;;;;;;5096727;28;20514;-59
2022/08/12 08:05:27;;;;;;;5.97;3.20;;;30.50;99.90;;;;;;5096723;28;20459;-58
2022/08/12 08:08:01;;;;;;;4.13;3.60;;;30.80;99.90;;;;;;5096327;28;20495;-58
2022/08/12 08:10:32;;;;;;;3.80;3.50;;;30.80;99.90;;;;;;5095877;28;20462;-58
2022/08/12 08:13:03;;;;;;;3.70;3.33;;;31.30;99.90;;;;;;5096565;28;20464;-58
2022/08/12 08:15:34;;;;;;;3.47;3.13;;;31.40;99.90;;;;;;5096389;28;20577;-58
2022/08/12 08:18:03;;;;;;;3.87;3.50;;;31.70;99.90;;;;;;5096585;28;20752;-56
2022/08/12 08:20:33;;;;;;;3.40;3.10;;;31.70;99.90;;;;;;5097350;28;20784;-56
2022/08/12 08:23:06;;;;;;;3.43;3.23;;;31.70;99.90;;;;;;5096958;28;20541;-57
2022/08/12 08:25:37;;;;;;;3.60;3.40;;;31.70;99.90;;;;;;5097648;28;20483;-58
2022/08/12 08:28:08;;;;;;;3.70;3.40;;;31.80;99.90;;;;;;5096891;28;20499;-58
2022/08/12 08:30:38;;;;;;;3.60;3.00;;;31.80;99.90;;;;;;5096524;28;20495;-58
2022/08/12 08:33:10;;;;;;;4.10;3.07;;;31.50;99.90;;;;;;5096563;28;20461;-57
2022/08/12 08:35:39;;;;;;;3.13;2.63;;;31.80;99.90;;;;;;5097135;28;20554;-58
2022/08/12 08:38:12;;;;;;;3.07;2.87;;;31.80;99.90;;;;;;5096945;28;20452;-58
2022/08/12 08:43:29;;;;;;;3.47;3.27;;;32.20;99.90;;;;;;5096751;28;20421;-58
2022/08/12 08:46:04;;;;;;;6.17;2.87;;;32.50;99.90;;;;;;5096483;28;20467;-58
2022/08/12 08:48:32;;;;;;;3.63;3.43;;;32.60;99.90;;;;;;5097091;28;20509;-58
2022/08/12 08:50:59;;;;;;;2.63;2.43;;;32.60;99.90;;;;;;5094230;28;20480;-58
2022/08/12 08:53:27;;;;;;;2.83;2.63;;;32.50;99.90;;;;;;5094693;28;20547;-56
2022/08/12 08:55:57;;;;;;;3.47;3.17;;;32.20;99.90;;;;;;5097751;28;20456;-57
2022/08/12 08:58:25;;;;;;;6.70;3.23;;;32.40;99.90;;;;;;5098537;28;20764;-58
2022/08/12 09:00:55;;;;;;;3.83;3.30;;;32.40;99.90;;;;;;5098820;28;20456;-58
2022/08/12 09:03:23;;;;;;;3.00;2.70;;;32.40;99.90;;;;;;5099401;28;20926;-58
2022/08/12 09:05:53;;;;;;;3.63;3.40;;;32.00;99.90;;;;;;5099247;28;20456;-59
2022/08/12 09:08:23;;;;;;;3.73;3.23;;;31.80;99.90;;;;;;5100385;28;20932;-59
2022/08/12 09:10:50;;;;;;;3.97;3.77;;;31.90;99.90;;;;;;5100327;28;20459;-59
2022/08/12 09:13:27;;;;;;;3.47;3.23;;;32.40;99.90;;;;;;5098507;28;20474;-58
2022/08/12 09:15:54;;;;;;;3.33;3.00;;;32.80;99.90;;;;;;5087732;28;20498;-57
2022/08/12 09:18:23;;;;;;;3.30;3.00;;;32.50;99.90;;;;;;5100198;28;20765;-58
2022/08/12 09:20:51;;;;;;;3.60;3.30;;;32.80;99.90;;;;;;5100125;28;20910;-58
2022/08/12 09:23:19;;;;;;;3.50;3.30;;;33.20;99.90;;;;;;5099949;28;20460;-56
2022/08/12 09:25:48;;;;;;;3.30;2.97;;;33.50;99.90;;;;;;5098462;28;20567;-58
2022/08/12 09:28:25;;;;;;;3.77;3.47;;;34.00;99.90;;;;;;5102632;28;20500;-58
2022/08/12 09:30:58;;;;;;;3.40;3.10;;;34.20;99.90;;;;;;5099593;28;20561;-57
2022/08/12 09:33:27;;;;;;;3.33;3.13;;;34.40;99.90;;;;;;5099888;28;20452;-59
2022/08/12 09:35:56;;;;;;;3.23;2.70;;;34.30;99.90;;;;;;5099333;28;20451;-56
2022/08/12 09:38:23;;;;;;;3.60;3.30;;;34.50;99.90;;;;;;5099782;28;20452;-57
2022/08/12 09:40:51;;;;;;;7.77;3.70;;;34.60;99.90;;;;;;5096506;28;20455;-58
2022/08/12 09:46:09;;;;;;;5.63;3.00;;;34.30;99.90;;;;;;5099009;28;20725;-58
2022/08/12 09:48:37;;;;;;;4.33;3.93;;;33.10;99.90;;;;;;5098665;28;20487;-58
2022/08/12 09:51:07;;;;;;;4.13;3.43;;;33.40;99.90;;;;;;5098953;28;20448;-58
2022/08/12 09:53:37;;;;;;;3.30;3.10;;;33.60;99.90;;;;;;5098392;28;20482;-58
2022/08/12 09:56:06;;;;;;;3.60;3.40;;;33.90;99.90;;;;;;5097668;28;20924;-58
2022/08/12 09:58:36;;;;;;;4.17;3.87;;;34.00;99.90;;;;;;5097068;28;20448;-59
2022/08/12 10:01:13;;;;;;;4.03;3.07;;;34.10;99.90;;;;;;5097323;28;20484;-58
2022/08/12 10:03:42;;;;;;;4.97;4.50;;;34.10;99.90;;;;;;5097634;28;20431;-55
2022/08/12 10:06:10;;;;;;;3.47;3.20;;;33.90;99.90;;;;;;5076664;28;20465;-59
2022/08/12 10:08:43;;;;;;;3.40;2.93;;;33.80;99.90;;;;;;5090389;28;20532;-59
2022/08/12 10:14:00;;;;;;;3.37;3.07;;;34.30;99.90;;;;;;5097438;28;20422;-59
2022/08/12 10:16:31;;;;;;;3.70;3.40;;;34.10;99.90;;;;;;5096982;28;20571;-57
2022/08/12 10:19:05;;;;;;;3.40;3.20;;;34.10;99.90;;;;;;5097468;28;20448;-59
2022/08/12 10:21:36;;;;;;;4.30;3.43;;;34.10;99.90;;;;;;5097624;28;20728;-57
2022/08/12 10:24:22;;;;;;;4.70;3.30;;;34.60;99.90;;;;;;5094754;28;20456;-58
2022/08/12 10:29:38;;;;;;;4.13;3.87;;;34.50;99.90;;;;;;5096753;28;20435;-59
2022/08/12 10:32:11;;;;;;;3.13;2.93;;;34.60;99.90;;;;;;5094703;28;20886;-56
2022/08/12 10:34:39;;;;;;;3.30;3.10;;;34.50;99.90;;;;;;5097098;28;20506;-59
2022/08/12 10:37:08;;;;;;;3.80;3.50;;;35.00;99.90;;;;;;5097390;28;20456;-58
2022/08/12 10:39:36;;;;;;;3.73;3.17;;;35.30;99.90;;;;;;5099038;28;20464;-58
2022/08/12 10:44:57;;;;;;;3.37;3.07;;;34.90;99.90;;;;;;5097989;28;20892;-59
2022/08/12 10:47:25;;;;;;;3.50;3.20;;;35.30;99.90;;;;;;5098524;28;20562;-59
2022/08/12 10:49:53;;;;;;;3.37;3.17;;;35.70;99.90;;;;;;5098365;28;20482;-60
2022/08/12 10:52:23;;;;;;;2.83;2.60;;;35.40;99.90;;;;;;5097966;28;20438;-56
2022/08/12 10:54:54;;;;;;;3.73;3.43;;;35.80;99.90;;;;;;5097555;28;20491;-60
2022/08/12 10:57:23;;;;;;;3.33;3.03;;;35.80;99.90;;;;;;5097232;28;20554;-59
2022/08/12 10:59:54;;;;;;;3.77;3.47;;;35.90;99.90;;;;;;5097426;28;20459;-58
2022/08/12 11:02:27;;;;;;;3.67;2.97;;;36.00;99.90;;;;;;5076299;28;20878;-59
2022/08/12 11:04:57;;;;;;;3.40;3.20;;;35.80;99.90;;;;;;5077539;28;20467;-55
2022/08/12 11:07:25;;;;;;;3.80;3.50;;;35.80;99.90;;;;;;5077610;28;20469;-57
2022/08/12 11:09:57;;;;;;;5.57;3.40;;;35.80;99.90;;;;;;5078019;28;20559;-59
2022/08/12 11:12:25;;;;;;;3.60;3.30;;;35.90;99.90;;;;;;5087461;28;20452;-57
2022/08/12 11:14:55;;;;;;;4.13;3.50;;;36.00;99.90;;;;;;5097473;28;20554;-58
2022/08/12 11:17:27;;;;;;;3.77;3.57;;;35.70;99.90;;;;;;5097550;28;20915;-53
2022/08/12 11:19:54;;;;;;;4.13;3.73;;;35.50;99.90;;;;;;5096833;28;20499;-60
2022/08/12 11:22:21;;;;;;;3.70;3.50;;;35.80;99.90;;;;;;5095864;28;20466;-60
2022/08/12 11:24:51;;;;;;;4.27;4.00;;;36.20;99.90;;;;;;5096621;28;20462;-58
2022/08/12 11:27:18;;;;;;;3.93;3.63;;;36.40;99.90;;;;;;5092063;28;20494;-57
2022/08/12 11:29:48;;;;;;;3.20;3.00;;;36.50;99.90;;;;;;5094099;28;20575;-54
2022/08/12 11:32:16;;;;;;;3.83;3.60;;;36.20;99.90;;;;;;5095237;28;20839;-58
2022/08/12 11:34:45;;;;;;;3.80;3.60;;;36.50;99.90;;;;;;5096705;28;20460;-55
2022/08/12 11:37:12;;;;;;;3.37;3.10;;;36.70;99.90;;;;;;5096863;28;20505;-53
2022/08/12 11:39:41;;;;;;;4.28;3.80;;;36.80;99.90;;;;;;5095869;28;20308;-58
2022/08/12 11:42:08;;;;;;;3.50;3.30;;;36.50;99.90;;;;;;5096396;28;20263;-58
2022/08/12 11:44:38;;;;;;;3.92;3.53;;;36.90;99.90;;;;;;5095711;28;20206;-57
2022/08/12 11:47:08;;;;;;;3.85;3.55;;;37.30;99.90;;;;;;5096772;28;20201;-56
2022/08/12 11:49:39;;;;;;;3.08;2.88;;;36.80;99.90;;;;;;5095842;28;20275;-59
2022/08/12 11:52:09;;;;;;;3.75;3.35;;;36.50;99.90;;;;;;5097134;28;20316;-58
2022/08/12 11:54:39;;;;;;;3.75;3.35;;;37.00;99.90;;;;;;5096902;28;20291;-59
2022/08/12 11:57:06;;;;;;;3.53;3.20;;;37.20;99.90;;;;;;5097013;28;20296;-58
2022/08/12 11:59:36;;;;;;;3.22;3.03;;;37.20;99.90;;;;;;5097443;28;20297;-59
2022/08/12 12:02:07;;;;;;;3.50;3.00;;;37.20;99.90;;;;;;5097511;28;20206;-55
2022/08/12 12:04:35;;;;;;;3.30;3.00;;;36.60;99.90;;;;;;5097016;28;20463;-56
2022/08/12 12:07:03;;;;;;;3.53;3.33;;;36.90;99.90;;;;;;5097008;28;20905;-57
2022/08/12 12:09:36;;;;;;;3.40;3.20;;;37.00;99.90;;;;;;5096583;28;20578;-58
2022/08/12 12:12:07;;;;;;;3.90;3.03;;;36.70;99.90;;;;;;5097468;28;20442;-58
2022/08/12 12:14:34;;;;;;;4.03;3.83;;;36.20;99.90;;;;;;5096104;28;20460;-58
2022/08/12 12:17:06;;;;;;;3.73;3.40;;;36.20;99.90;;;;;;5095689;28;20515;-58
2022/08/12 12:19:35;;;;;;;3.37;3.07;;;36.60;99.90;;;;;;5088345;28;20456;-58
2022/08/12 12:22:02;;;;;;;3.77;3.57;;;36.10;99.90;;;;;;5090686;28;20456;-58
2022/08/12 12:24:36;;;;;;;2.80;2.60;;;36.20;99.90;;;;;;5095383;28;20201;-57
2022/08/12 12:27:07;;;;;;;3.42;3.13;;;36.70;99.90;;;;;;5092531;28;20214;-59
2022/08/12 12:29:38;;;;;;;3.35;3.15;;;36.90;99.90;;;;;;5094741;28;20232;-58
2022/08/12 12:32:05;;;;;;;3.60;3.30;;;37.10;99.90;;;;;;5097876;28;20197;-57
2022/08/12 12:34:35;;;;;;;3.00;2.80;;;36.90;99.90;;;;;;5097794;28;20863;-59
2022/08/12 12:37:02;;;;;;;4.67;3.03;;;36.80;99.90;;;;;;5097381;28;20490;-58
2022/08/12 12:39:30;;;;;;;3.42;3.20;;;37.00;99.90;;;;;;5096805;28;20280;-56
2022/08/12 12:42:01;;;;;;;2.90;2.70;;;37.50;99.90;;;;;;5097603;28;20204;-58
2022/08/12 12:44:30;;;;;;;3.05;2.85;;;37.70;99.90;;;;;;5097438;28;20206;-56
2022/08/12 12:46:57;;;;;;;3.35;3.05;;;37.20;99.90;;;;;;5097176;28;20198;-57
2022/08/12 12:49:30;;;;;;;2.60;2.40;;;35.80;99.90;;;;;;5096819;28;20320;-57
2022/08/12 12:51:57;;;;;;;3.42;3.22;;;36.30;99.90;;;;;;5092670;28;20212;-55
2022/08/12 12:54:25;;;;;;;3.67;3.38;;;36.80;99.90;;;;;;5095621;28;20767;-58
2022/08/12 12:56:54;;;;;;;3.65;3.35;;;36.80;99.90;;;;;;5093173;28;20204;-58
2022/08/12 12:59:23;;;;;;;2.70;2.50;;;37.30;99.90;;;;;;5095166;28;20186;-59
2022/08/12 13:02:05;;;;;;;3.35;3.10;;;37.30;99.90;;;;;;5095852;28;20198;-55
2022/08/12 13:04:33;;;;;;;2.90;2.70;;;36.90;99.90;;;;;;5096683;28;20206;-58
2022/08/12 13:07:03;;;;;;;3.30;3.10;;;36.90;99.90;;;;;;5095820;28;20513;-58
2022/08/12 13:09:34;;;;;;;4.13;3.07;;;36.40;99.90;;;;;;5096349;28;20491;-59
2022/08/12 13:12:09;;;;;;;2.90;2.70;;;36.60;99.90;;;;;;5098004;28;20481;-55
2022/08/12 13:14:46;;;;;;;2.83;2.63;;;36.50;99.90;;;;;;5088349;28;20540;-59
2022/08/12 13:17:17;;;;;;;3.47;3.27;;;36.60;99.90;;;;;;5093948;28;20467;-57
2022/08/12 13:19:44;;;;;;;3.17;2.97;;;36.30;99.90;;;;;;5097261;28;20470;-57
2022/08/12 13:22:18;;;;;;;3.27;2.50;;;36.30;99.90;;;;;;5095724;28;20517;-58
2022/08/12 13:24:49;;;;;;;3.23;3.00;;;36.00;99.90;;;;;;5098289;28;20459;-58
2022/08/12 13:27:20;;;;;;;3.03;2.80;;;36.30;99.90;;;;;;5095529;28;20526;-58
2022/08/12 13:29:53;;;;;;;4.40;3.00;;;36.30;99.90;;;;;;5090573;28;20463;-59
2022/08/12 13:32:20;;;;;;;3.70;3.30;;;36.90;99.90;;;;;;5093335;28;20928;-58
2022/08/12 13:34:59;;;;;;;3.00;2.60;;;37.20;99.90;;;;;;5089594;28;20473;-56
2022/08/12 13:37:29;;;;;;;2.80;2.60;;;36.90;99.90;;;;;;5097645;28;20885;-55
2022/08/12 13:40:00;;;;;;;3.80;3.50;;;36.90;99.90;;;;;;5093512;28;20427;-56
2022/08/12 13:42:30;;;;;;;3.07;2.87;;;37.20;99.90;;;;;;5095967;28;20575;-58
2022/08/12 13:45:01;;;;;;;3.40;3.10;;;37.20;99.90;;;;;;5096630;28;20567;-58
2022/08/12 13:47:33;;;;;;;3.00;2.80;;;37.30;99.90;;;;;;5099044;28;20856;-57
2022/08/12 13:50:01;;;;;;;2.70;2.60;;;37.20;99.90;;;;;;5085024;28;20790;-57
2022/08/12 13:52:28;;;;;;;3.10;2.80;;;37.10;99.90;;;;;;5098230;28;20517;-55
2022/08/12 13:54:55;;;;;;;4.00;2.75;;;37.20;99.90;;;;;;5093627;28;20745;-58
2022/08/12 13:57:24;;;;;;;4.35;2.80;;;37.60;99.90;;;;;;5091810;28;20641;-54
2022/08/12 13:59:53;;;;;;;3.20;3.00;;;37.20;99.90;;;;;;5097936;28;20198;-56
2022/08/12 14:02:24;;;;;;;3.47;3.23;;;36.60;99.90;;;;;;5091706;28;20259;-56
2022/08/12 14:04:52;;;;;;;3.30;3.00;;;35.70;99.90;;;;;;5096248;28;21857;-58
2022/08/12 14:07:23;;;;;;;3.57;3.37;;;35.70;99.90;;;;;;5097285;28;20803;-56
2022/08/12 14:12:45;;;;;;;2.80;2.60;;;36.00;99.90;;;;;;5097463;28;20510;-57
2022/08/12 14:15:15;;;;;;;3.70;3.23;;;36.00;99.90;;;;;;5097296;28;20928;-53
2022/08/12 14:17:50;;;;;;;6.53;3.27;;;35.90;99.90;;;;;;5096922;28;20430;-57
2022/08/12 14:20:19;;;;;;;2.67;2.47;;;35.60;99.90;;;;;;5097419;28;20963;-54
2022/08/12 14:22:48;;;;;;;2.67;2.47;;;35.60;99.90;;;;;;5092370;28;20559;-58
2022/08/12 14:25:16;;;;;;;2.60;2.40;;;35.80;99.90;;;;;;5096339;28;20460;-56
2022/08/12 14:27:47;;;;;;;3.43;3.10;;;36.00;99.90;;;;;;5096549;28;20987;-58
2022/08/12 14:30:19;;;;;;;3.13;2.93;;;36.30;99.90;;;;;;5097060;28;20515;-58
2022/08/12 14:32:51;;;;;;;4.73;3.60;;;36.40;99.90;;;;;;5096997;28;20891;-57
2022/08/12 14:35:27;;;;;;;3.10;2.90;;;36.50;99.90;;;;;;5096964;28;20452;-59
2022/08/12 14:38:16;;;;;;;3.53;3.33;;;36.50;99.90;;;;;;5097584;28;20475;-57
2022/08/12 14:40:44;;;;;;;3.87;3.30;;;35.90;99.90;;;;;;5096841;28;20452;-58
2022/08/12 14:43:15;;;;;;;3.37;3.17;;;35.80;99.90;;;;;;5097455;28;20434;-56
2022/08/12 14:45:50;;;;;;;3.67;3.37;;;35.00;99.90;;;;;;5096053;28;21049;-56